Time;durP1;ratioP1;P1;durP2;ratioP2;P2;SDS_P1;SDS_P2;PMS_P1;PMS_P2;Temp;Humidity;BMP_temperature;BMP_pressure;BME280_temperature;BME280_humidity;BME280_pressure;Samples;Min_cycle;Max_cycle;Signal;HPM_P1;HPM_P2
2023/04/24 00:01:48;;;;;;;5.30;3.60;;;11.20;99.90;;;;;;5072381;28;20043;-76
2023/04/24 00:04:16;;;;;;;5.35;3.50;;;11.20;99.90;;;;;;5072415;28;20040;-77
2023/04/24 00:06:42;;;;;;;6.35;3.47;;;11.20;99.90;;;;;;5072342;28;20048;-77
2023/04/24 00:09:09;;;;;;;7.78;3.72;;;11.20;99.90;;;;;;5072284;28;20081;-77
2023/04/24 00:11:36;;;;;;;6.47;3.45;;;11.30;99.90;;;;;;5071255;28;20053;-75
2023/04/24 00:14:02;;;;;;;5.18;3.35;;;11.30;99.90;;;;;;5071896;28;20052;-76
2023/04/24 00:16:28;;;;;;;5.45;3.35;;;11.30;99.90;;;;;;5071847;28;20047;-76
2023/04/24 00:18:54;;;;;;;4.30;2.97;;;11.30;99.90;;;;;;5071892;28;20036;-77
2023/04/24 00:21:21;;;;;;;5.50;3.03;;;11.30;99.90;;;;;;5055042;28;20050;-77
2023/04/24 00:23:47;;;;;;;4.72;3.40;;;11.30;99.90;;;;;;5072004;28;20044;-77
2023/04/24 00:26:13;;;;;;;5.22;3.00;;;11.30;99.90;;;;;;5071737;28;20052;-77
2023/04/24 00:28:39;;;;;;;5.93;3.17;;;11.30;99.90;;;;;;5071603;28;20527;-77
2023/04/24 00:31:05;;;;;;;4.43;2.53;;;11.40;99.90;;;;;;5055260;28;20123;-77
2023/04/24 00:33:31;;;;;;;2.65;2.15;;;11.40;99.90;;;;;;5071300;28;20037;-77
2023/04/24 00:35:56;;;;;;;2.40;1.50;;;11.40;99.90;;;;;;5055155;28;20040;-77
2023/04/24 00:38:22;;;;;;;2.00;1.60;;;11.30;99.90;;;;;;5071157;28;20336;-77
2023/04/24 00:40:49;;;;;;;1.90;1.27;;;11.30;99.90;;;;;;5054856;28;20626;-77
2023/04/24 00:43:16;;;;;;;1.15;0.80;;;11.30;99.90;;;;;;5055473;28;20044;-77
2023/04/24 00:45:41;;;;;;;;;;;11.20;99.90;;;;;;5071848;28;20056;-77
2023/04/24 00:48:07;;;;;;;1.42;0.82;;;11.20;99.90;;;;;;5071381;28;19920;-77
2023/04/24 00:50:35;;;;;;;2.17;0.82;;;11.10;99.90;;;;;;5071190;28;20051;-77
2023/04/24 00:53:01;;;;;;;1.95;0.82;;;11.10;99.90;;;;;;5071620;28;20402;-77
2023/04/24 00:55:26;;;;;;;1.23;0.80;;;11.10;99.90;;;;;;5070764;28;20040;-76
2023/04/24 00:57:52;;;;;;;1.20;0.80;;;11.00;99.90;;;;;;5071289;28;20632;-76
2023/04/24 01:00:19;;;;;;;2.08;0.70;;;11.00;99.90;;;;;;5070696;28;20042;-76
2023/04/24 01:02:45;;;;;;;;;;;11.00;99.90;;;;;;5070994;28;20040;-76
2023/04/24 01:05:13;;;;;;;1.20;0.80;;;11.00;99.90;;;;;;5054263;28;19923;-77
2023/04/24 01:07:40;;;;;;;1.15;0.90;;;11.00;99.90;;;;;;5054169;28;20563;-76
2023/04/24 01:10:08;;;;;;;2.92;0.80;;;10.90;99.90;;;;;;5053819;28;20040;-75
2023/04/24 01:12:33;;;;;;;1.20;0.90;;;10.90;99.90;;;;;;5040475;28;20036;-76
2023/04/24 01:14:59;;;;;;;1.10;0.80;;;10.90;99.90;;;;;;5074509;28;20063;-76
2023/04/24 01:17:25;;;;;;;0.82;0.70;;;10.90;99.90;;;;;;5057024;28;20032;-76
2023/04/24 01:19:53;;;;;;;1.23;0.75;;;10.90;99.90;;;;;;5074224;28;20040;-76
2023/04/24 01:22:20;;;;;;;0.77;0.70;;;10.90;99.90;;;;;;5074009;28;20044;-76
2023/04/24 01:24:46;;;;;;;1.20;1.00;;;10.90;99.90;;;;;;5057468;28;20048;-76
2023/04/24 01:27:12;;;;;;;0.70;0.63;;;10.90;99.90;;;;;;5073889;28;20040;-76
2023/04/24 01:29:38;;;;;;;1.52;1.00;;;10.80;99.90;;;;;;5073432;28;20444;-77
2023/04/24 01:32:04;;;;;;;2.47;1.10;;;10.80;99.90;;;;;;5073717;28;20044;-76
2023/04/24 01:34:31;;;;;;;1.30;1.00;;;10.70;99.90;;;;;;5073503;28;20040;-75
2023/04/24 01:36:57;;;;;;;1.40;1.00;;;10.70;99.90;;;;;;5073625;28;20032;-76
2023/04/24 01:39:25;;;;;;;1.40;1.02;;;10.70;99.90;;;;;;5073133;28;20055;-76
2023/04/24 01:41:51;;;;;;;1.58;1.10;;;10.70;99.90;;;;;;5074096;28;20477;-76
2023/04/24 01:44:18;;;;;;;2.13;1.42;;;10.60;99.90;;;;;;5073969;28;20078;-76
2023/04/24 01:46:44;;;;;;;1.48;1.38;;;10.60;99.90;;;;;;5073337;28;20128;-76
2023/04/24 01:49:10;;;;;;;1.35;0.98;;;10.60;99.90;;;;;;5073330;28;20500;-76
2023/04/24 01:51:35;;;;;;;1.77;1.23;;;10.60;99.90;;;;;;5072891;28;20434;-75
2023/04/24 01:54:01;;;;;;;1.70;1.30;;;10.60;99.90;;;;;;5040446;28;20040;-75
2023/04/24 01:56:29;;;;;;;3.60;1.70;;;10.60;99.90;;;;;;5073105;28;20039;-76
2023/04/24 01:58:56;;;;;;;3.70;1.60;;;10.60;99.90;;;;;;5073408;28;20278;-76
2023/04/24 02:01:24;;;;;;;1.60;1.30;;;10.60;99.90;;;;;;5056537;28;20040;-76
2023/04/24 02:03:49;;;;;;;2.25;1.60;;;10.60;99.90;;;;;;5073756;28;20036;-75
2023/04/24 02:06:15;;;;;;;4.50;2.00;;;10.60;99.90;;;;;;5056862;28;20126;-76
2023/04/24 02:08:41;;;;;;;3.83;1.67;;;10.60;99.90;;;;;;5056085;28;20399;-76
2023/04/24 02:11:08;;;;;;;3.05;2.25;;;10.60;99.90;;;;;;5072897;28;20524;-76
2023/04/24 02:13:33;;;;;;;2.25;1.77;;;10.60;99.90;;;;;;5072361;28;20055;-76
2023/04/24 02:15:59;;;;;;;2.27;1.70;;;10.60;99.90;;;;;;5072931;28;20482;-76
2023/04/24 02:18:25;;;;;;;3.33;2.28;;;10.70;99.90;;;;;;5072855;28;20401;-76
2023/04/24 02:20:50;;;;;;;3.33;2.28;;;10.60;99.90;;;;;;5056655;28;20097;-76
2023/04/24 02:23:16;;;;;;;5.18;2.42;;;10.60;99.90;;;;;;5073221;28;20516;-76
2023/04/24 02:25:42;;;;;;;3.03;2.33;;;10.60;99.90;;;;;;5072978;28;20441;-76
2023/04/24 02:28:07;;;;;;;2.83;2.23;;;10.60;99.90;;;;;;5056537;28;20273;-76
2023/04/24 02:30:33;;;;;;;4.03;3.10;;;10.60;99.90;;;;;;5072661;28;20297;-76
2023/04/24 02:32:59;;;;;;;3.72;2.78;;;10.60;99.90;;;;;;5056672;28;20032;-76
2023/04/24 02:35:25;;;;;;;5.38;2.80;;;10.60;99.90;;;;;;5056403;28;20505;-76
2023/04/24 02:37:51;;;;;;;4.60;3.00;;;10.60;99.90;;;;;;5073297;28;20164;-76
2023/04/24 02:40:16;;;;;;;4.13;2.60;;;10.60;99.90;;;;;;5055958;28;20071;-76
2023/04/24 02:42:42;;;;;;;5.03;3.45;;;10.60;99.90;;;;;;5055822;28;20040;-76
2023/04/24 02:45:08;;;;;;;4.72;3.20;;;10.60;99.90;;;;;;5056167;28;20059;-76
2023/04/24 02:47:34;;;;;;;3.30;2.53;;;10.60;99.90;;;;;;5072860;28;20044;-76
2023/04/24 02:49:59;;;;;;;3.85;2.70;;;10.60;99.90;;;;;;5072522;28;20044;-76
2023/04/24 02:52:25;;;;;;;4.20;3.20;;;10.60;99.90;;;;;;5073077;28;20435;-76
2023/04/24 02:54:51;;;;;;;4.35;3.03;;;10.70;99.90;;;;;;5056240;28;20032;-76
2023/04/24 02:57:16;;;;;;;5.40;3.30;;;10.60;99.90;;;;;;5056123;28;20040;-76
2023/04/24 02:59:42;;;;;;;5.37;3.20;;;10.70;99.90;;;;;;5072311;28;20309;-76
2023/04/24 03:02:08;;;;;;;5.45;3.67;;;10.60;99.90;;;;;;5039455;28;20305;-76
2023/04/24 03:04:34;;;;;;;6.30;3.70;;;10.60;99.90;;;;;;5072344;28;20032;-76
2023/04/24 03:07:00;;;;;;;5.57;3.38;;;10.60;99.90;;;;;;5072904;28;20105;-77
2023/04/24 03:09:26;;;;;;;4.85;3.13;;;10.60;99.90;;;;;;5072787;28;20040;-76
2023/04/24 03:11:52;;;;;;;6.33;4.00;;;10.60;99.90;;;;;;5055435;28;20067;-76
2023/04/24 03:14:17;;;;;;;7.40;4.20;;;10.60;99.90;;;;;;5072371;28;20794;-76
2023/04/24 03:16:43;;;;;;;6.38;4.15;;;10.60;99.90;;;;;;5072009;28;20094;-76
2023/04/24 03:19:09;;;;;;;7.00;4.60;;;10.60;99.90;;;;;;5072553;28;20497;-76
2023/04/24 03:21:35;;;;;;;6.97;4.25;;;10.60;99.90;;;;;;5071997;28;20286;-76
2023/04/24 03:24:02;;;;;;;;;;;10.60;99.90;;;;;;5073086;28;20039;-76
2023/04/24 03:26:27;;;;;;;7.43;4.97;;;10.60;99.90;;;;;;5074848;28;20349;-76
2023/04/24 03:28:53;;;;;;;7.32;4.03;;;10.60;99.90;;;;;;5059535;28;20051;-76
2023/04/24 03:31:20;;;;;;;8.35;5.13;;;10.60;99.90;;;;;;5075868;28;20101;-76
2023/04/24 03:33:46;;;;;;;9.55;5.82;;;10.60;99.90;;;;;;5042511;28;20036;-76
2023/04/24 03:36:12;;;;;;;6.93;5.03;;;10.60;99.90;;;;;;5075956;28;20485;-76
2023/04/24 03:38:38;;;;;;;10.00;6.45;;;10.60;99.90;;;;;;5042689;28;20500;-76
2023/04/24 03:41:03;;;;;;;13.40;7.27;;;10.60;99.90;;;;;;5075938;28;20083;-76
2023/04/24 03:43:29;;;;;;;10.52;6.72;;;10.70;99.90;;;;;;5075836;28;20036;-76
2023/04/24 03:45:55;;;;;;;13.02;7.75;;;10.60;99.90;;;;;;5058949;28;20134;-76
2023/04/24 03:48:20;;;;;;;7.80;4.85;;;10.60;99.90;;;;;;5075702;28;20044;-77
2023/04/24 03:50:46;;;;;;;10.23;7.25;;;10.60;99.90;;;;;;5041984;28;20082;-76
2023/04/24 03:53:12;;;;;;;11.55;8.02;;;10.60;99.90;;;;;;5042589;28;20040;-76
2023/04/24 03:55:37;;;;;;;9.40;6.20;;;10.60;99.90;;;;;;5075473;28;20044;-75
2023/04/24 03:58:03;;;;;;;11.65;7.55;;;10.60;99.90;;;;;;5075585;28;20040;-77
2023/04/24 04:00:31;;;;;;;10.37;6.60;;;10.50;99.90;;;;;;5058982;28;20078;-76
2023/04/24 04:02:57;;;;;;;11.20;7.45;;;10.60;99.90;;;;;;5058772;28;20281;-77
2023/04/24 04:05:22;;;;;;;9.40;6.40;;;10.60;99.90;;;;;;5058903;28;20584;-77
2023/04/24 04:07:48;;;;;;;9.57;6.50;;;10.60;99.90;;;;;;5058335;28;20663;-76
2023/04/24 04:10:14;;;;;;;12.57;7.70;;;10.50;99.90;;;;;;5058711;28;20040;-76
2023/04/24 04:12:39;;;;;;;10.23;6.25;;;10.50;99.90;;;;;;5058122;28;20106;-76
2023/04/24 04:15:06;;;;;;;9.90;6.63;;;10.50;99.90;;;;;;5075218;28;20075;-77
2023/04/24 04:17:32;;;;;;;9.63;6.60;;;10.60;99.90;;;;;;5075354;28;20119;-77
2023/04/24 04:19:58;;;;;;;8.90;5.95;;;10.50;99.90;;;;;;5075244;28;20459;-76
2023/04/24 04:22:23;;;;;;;8.90;6.43;;;10.50;99.90;;;;;;5075115;28;20058;-76
2023/04/24 04:24:50;;;;;;;9.20;6.00;;;10.50;99.90;;;;;;5074782;28;20289;-76
2023/04/24 04:27:16;;;;;;;8.38;5.88;;;10.50;99.90;;;;;;5075065;28;20810;-76
2023/04/24 04:29:42;;;;;;;8.43;6.50;;;10.50;99.90;;;;;;5074290;28;20130;-76
2023/04/24 04:32:08;;;;;;;8.35;5.95;;;10.40;99.90;;;;;;5058259;28;20047;-76
2023/04/24 04:34:33;;;;;;;9.37;5.43;;;10.50;99.90;;;;;;5074604;28;20097;-77
2023/04/24 04:37:01;;;;;;;8.80;5.53;;;10.40;99.90;;;;;;5073634;28;20278;-76
2023/04/24 04:39:28;;;;;;;8.18;5.10;;;10.40;99.90;;;;;;5074557;28;20098;-76
2023/04/24 04:41:53;;;;;;;7.40;5.05;;;10.40;99.90;;;;;;5041264;28;20044;-77
2023/04/24 04:44:19;;;;;;;7.60;4.93;;;10.40;99.90;;;;;;5074841;28;20058;-77
2023/04/24 04:46:45;;;;;;;7.90;4.97;;;10.40;99.90;;;;;;5074384;28;20047;-76
2023/04/24 04:49:11;;;;;;;7.03;4.82;;;10.40;99.90;;;;;;5074756;28;20515;-77
2023/04/24 04:51:37;;;;;;;10.93;5.22;;;10.40;99.90;;;;;;5040923;28;20040;-76
2023/04/24 04:54:02;;;;;;;8.15;5.43;;;10.30;99.90;;;;;;5074875;28;20169;-76
2023/04/24 04:56:28;;;;;;;8.77;5.03;;;11.10;99.90;;;;;;5074485;28;20123;-77
2023/04/24 04:58:54;;;;;;;6.13;4.37;;;10.30;99.90;;;;;;5057430;28;20801;-77
2023/04/24 05:01:19;;;;;;;7.17;4.57;;;10.30;99.90;;;;;;5057803;28;20599;-77
2023/04/24 05:03:45;;;;;;;9.00;5.82;;;10.30;99.90;;;;;;5057457;28;20039;-76
2023/04/24 05:06:11;;;;;;;8.50;5.72;;;10.30;99.90;;;;;;5057425;28;20072;-76
2023/04/24 05:08:36;;;;;;;7.47;5.20;;;10.20;99.90;;;;;;5074285;28;20540;-76
2023/04/24 05:11:02;;;;;;;6.77;4.10;;;10.20;99.90;;;;;;5056872;28;20082;-76
2023/04/24 05:13:28;;;;;;;7.68;5.05;;;10.20;99.90;;;;;;5074133;28;20282;-76
2023/04/24 05:15:53;;;;;;;6.60;4.28;;;10.20;99.90;;;;;;5056821;28;20036;-77
2023/04/24 05:18:19;;;;;;;5.50;3.35;;;10.30;99.90;;;;;;5074169;28;20044;-77
2023/04/24 05:20:45;;;;;;;6.70;4.00;;;10.30;99.90;;;;;;5073607;28;20044;-77
2023/04/24 05:23:11;;;;;;;6.72;4.10;;;10.30;99.90;;;;;;5074009;28;20126;-77
2023/04/24 05:25:38;;;;;;;;;;;10.40;99.90;;;;;;5074159;28;20040;-77
2023/04/24 05:28:04;;;;;;;7.28;4.15;;;10.40;99.90;;;;;;5073963;28;19916;-77
2023/04/24 05:30:30;;;;;;;;;;;10.40;99.90;;;;;;5040995;28;20074;-77
2023/04/24 05:32:56;;;;;;;5.32;2.70;;;10.40;99.90;;;;;;5073408;28;19919;-77
2023/04/24 05:35:21;;;;;;;5.00;2.43;;;10.40;99.90;;;;;;5073532;28;20062;-77
2023/04/24 05:37:47;;;;;;;3.00;1.93;;;10.40;99.90;;;;;;5056664;28;20290;-77
2023/04/24 05:40:13;;;;;;;3.05;1.85;;;10.40;99.90;;;;;;5073291;28;20040;-77
2023/04/24 05:42:39;;;;;;;3.72;1.90;;;10.40;99.90;;;;;;5073499;28;20043;-77
2023/04/24 05:45:05;;;;;;;2.97;1.88;;;10.40;99.90;;;;;;5056554;28;20141;-77
2023/04/24 05:47:31;;;;;;;3.30;2.00;;;10.40;99.90;;;;;;5073480;28;20504;-77
2023/04/24 05:49:56;;;;;;;3.50;1.80;;;10.30;99.90;;;;;;5056018;28;20040;-77
2023/04/24 05:52:22;;;;;;;3.47;1.93;;;10.30;99.90;;;;;;5073325;28;20046;-77
2023/04/24 05:54:48;;;;;;;3.85;2.08;;;10.20;99.90;;;;;;5072736;28;20281;-77
2023/04/24 05:57:14;;;;;;;5.15;2.40;;;10.20;99.90;;;;;;5073137;28;20036;-76
2023/04/24 05:59:40;;;;;;;3.40;2.40;;;10.20;99.90;;;;;;5073010;28;20047;-76
2023/04/24 06:02:06;;;;;;;;;;;10.20;99.90;;;;;;5073468;28;20119;-76
2023/04/24 06:04:32;;;;;;;3.20;1.77;;;10.10;99.90;;;;;;5072836;28;20085;-76
2023/04/24 06:06:59;;;;;;;5.05;2.40;;;10.10;99.90;;;;;;5073009;28;20436;-76
2023/04/24 06:09:25;;;;;;;4.63;2.22;;;10.00;99.90;;;;;;5056411;28;20051;-76
2023/04/24 06:11:53;;;;;;;;;;;10.00;99.90;;;;;;5072762;28;20128;-76
2023/04/24 06:14:19;;;;;;;5.75;2.53;;;10.00;99.90;;;;;;5072992;28;19938;-76
2023/04/24 06:16:45;;;;;;;4.03;2.60;;;10.00;99.90;;;;;;5072460;28;20032;-76
2023/04/24 06:19:10;;;;;;;5.97;2.60;;;10.10;99.90;;;;;;5072971;28;20377;-76
2023/04/24 06:21:36;;;;;;;4.00;2.80;;;10.10;99.90;;;;;;5073016;28;20493;-77
2023/04/24 06:24:03;;;;;;;5.50;2.85;;;10.10;99.90;;;;;;5055900;28;20463;-77
2023/04/24 06:26:29;;;;;;;7.70;3.33;;;10.10;99.90;;;;;;5073113;28;20134;-76
2023/04/24 06:28:54;;;;;;;7.93;3.53;;;10.10;99.90;;;;;;5072354;28;20075;-76
2023/04/24 06:31:21;;;;;;;6.75;4.43;;;10.10;99.90;;;;;;5072699;28;20040;-76
2023/04/24 06:33:48;;;;;;;7.47;4.55;;;10.20;99.90;;;;;;5072450;28;20068;-76
2023/04/24 06:36:14;;;;;;;6.82;4.15;;;10.20;99.90;;;;;;5056062;28;20524;-76
2023/04/24 06:38:39;;;;;;;7.55;4.50;;;10.20;99.90;;;;;;5072717;28;20040;-77
2023/04/24 06:41:05;;;;;;;7.13;4.40;;;10.20;99.90;;;;;;5072695;28;20495;-77
2023/04/24 06:43:31;;;;;;;14.80;5.20;;;10.20;99.90;;;;;;5072509;28;20101;-77
2023/04/24 06:45:58;;;;;;;6.40;4.10;;;10.20;99.90;;;;;;5039266;28;20046;-77
2023/04/24 06:48:25;;;;;;;9.70;3.85;;;10.20;99.90;;;;;;5072758;28;20511;-77
2023/04/24 06:50:50;;;;;;;7.10;4.45;;;10.20;99.90;;;;;;5072072;28;20048;-77
2023/04/24 06:53:16;;;;;;;8.57;3.97;;;10.20;99.90;;;;;;5072402;28;20036;-77
2023/04/24 06:55:43;;;;;;;6.72;3.75;;;10.20;99.90;;;;;;5056073;28;20040;-77
2023/04/24 06:58:09;;;;;;;;;;;10.20;99.90;;;;;;5056050;28;20044;-77
2023/04/24 07:00:34;;;;;;;5.20;2.88;;;10.20;99.90;;;;;;5057029;28;19942;-77
2023/04/24 07:03:00;;;;;;;4.57;2.40;;;10.20;99.90;;;;;;5059468;28;20043;-77
2023/04/24 07:05:26;;;;;;;3.55;1.88;;;10.20;99.90;;;;;;5043586;28;20489;-77
2023/04/24 07:07:52;;;;;;;4.53;2.00;;;10.20;99.90;;;;;;5059240;28;20047;-77
2023/04/24 07:10:18;;;;;;;3.67;2.13;;;10.20;99.90;;;;;;5059515;28;20044;-77
2023/04/24 07:12:43;;;;;;;5.03;1.70;;;10.20;99.90;;;;;;5059634;28;20433;-77
2023/04/24 07:15:10;;;;;;;5.72;1.95;;;10.30;99.90;;;;;;5076107;28;20040;-77
2023/04/24 07:17:38;;;;;;;5.43;2.03;;;10.30;99.90;;;;;;5076130;28;20036;-77
2023/04/24 07:20:05;;;;;;;2.28;1.50;;;10.30;99.90;;;;;;5076005;28;20485;-76
2023/04/24 07:22:31;;;;;;;4.75;1.77;;;10.20;99.90;;;;;;5059709;28;20047;-77
2023/04/24 07:24:56;;;;;;;3.60;1.92;;;10.30;99.90;;;;;;5042664;28;20175;-76
2023/04/24 07:27:22;;;;;;;6.37;2.37;;;10.30;99.90;;;;;;5075967;28;20059;-77
2023/04/24 07:29:48;;;;;;;5.40;1.83;;;10.20;99.90;;;;;;5076379;28;20289;-76
2023/04/24 07:32:13;;;;;;;3.90;1.80;;;10.30;99.90;;;;;;5059234;28;20177;-77
2023/04/24 07:34:39;;;;;;;5.63;1.90;;;10.20;99.90;;;;;;5059456;28;20284;-77
2023/04/24 07:37:05;;;;;;;7.10;2.05;;;10.20;99.90;;;;;;5075615;28;20047;-77
2023/04/24 07:39:31;;;;;;;6.53;2.10;;;10.20;99.90;;;;;;5059469;28;20040;-77
2023/04/24 07:41:58;;;;;;;3.53;1.95;;;10.10;99.90;;;;;;5075610;28;20052;-77
2023/04/24 07:44:24;;;;;;;5.97;2.38;;;10.20;99.90;;;;;;5075763;28;20044;-77
2023/04/24 07:46:50;;;;;;;3.58;1.88;;;10.10;99.90;;;;;;5059324;28;20139;-77
2023/04/24 07:49:16;;;;;;;3.70;1.92;;;10.00;99.90;;;;;;5075610;28;20475;-77
2023/04/24 07:51:42;;;;;;;3.90;1.80;;;10.00;99.90;;;;;;5059151;28;20501;-77
2023/04/24 07:54:07;;;;;;;4.03;1.90;;;10.10;99.90;;;;;;5058821;28;20079;-77
2023/04/24 07:56:33;;;;;;;6.00;2.15;;;10.10;99.90;;;;;;5075705;28;20040;-77
2023/04/24 07:59:00;;;;;;;4.03;2.80;;;10.10;99.90;;;;;;5075080;28;20035;-77
2023/04/24 08:01:26;;;;;;;4.72;3.20;;;10.10;99.90;;;;;;5059026;28;20135;-77
2023/04/24 08:03:52;;;;;;;12.43;4.32;;;10.10;99.90;;;;;;5058495;28;20504;-77
2023/04/24 08:06:18;;;;;;;13.00;5.33;;;10.00;99.90;;;;;;5059015;28;20173;-77
2023/04/24 08:08:44;;;;;;;10.18;4.88;;;10.00;99.90;;;;;;5075755;28;20327;-77
2023/04/24 08:11:09;;;;;;;13.68;7.03;;;10.00;99.90;;;;;;5057872;28;20052;-77
2023/04/24 08:13:35;;;;;;;12.65;6.10;;;9.90;99.90;;;;;;5074176;28;20381;-77
2023/04/24 08:16:01;;;;;;;16.97;7.10;;;9.90;99.90;;;;;;5075108;28;20039;-77
2023/04/24 08:18:27;;;;;;;15.23;8.23;;;9.90;99.90;;;;;;5075523;28;20043;-77
2023/04/24 08:20:53;;;;;;;21.13;8.48;;;9.80;99.90;;;;;;5058517;28;20080;-77
2023/04/24 08:23:18;;;;;;;15.73;8.15;;;9.80;99.90;;;;;;5058358;28;20374;-77
2023/04/24 08:25:44;;;;;;;18.43;9.13;;;9.80;99.90;;;;;;5058348;28;20036;-77
2023/04/24 08:28:10;;;;;;;25.70;8.73;;;9.80;99.90;;;;;;5041312;28;20848;-77
2023/04/24 08:30:38;;;;;;;18.92;8.73;;;9.70;99.90;;;;;;5058105;28;20312;-77
2023/04/24 08:33:03;;;;;;;17.65;9.07;;;9.70;99.90;;;;;;5074579;28;20040;-77
2023/04/24 08:35:29;;;;;;;20.15;9.32;;;9.60;99.90;;;;;;5058031;28;20122;-77
2023/04/24 08:37:55;;;;;;;19.20;8.65;;;9.70;99.90;;;;;;5074417;28;20089;-77
2023/04/24 08:40:29;;;;;;;18.63;8.95;;;9.60;99.90;;;;;;5074827;28;20411;-77
2023/04/24 08:42:56;;;;;;;18.95;8.43;;;9.70;99.90;;;;;;5074653;28;20048;-77
2023/04/24 08:45:23;;;;;;;17.52;8.88;;;9.60;99.90;;;;;;5057890;28;20036;-77
2023/04/24 08:47:49;;;;;;;18.05;8.57;;;9.50;99.90;;;;;;5058260;28;20490;-77
2023/04/24 08:50:15;;;;;;;20.80;7.72;;;9.50;99.90;;;;;;5074087;28;20075;-77
2023/04/24 08:52:42;;;;;;;16.92;8.65;;;9.50;99.90;;;;;;5057903;28;20119;-77
2023/04/24 08:55:09;;;;;;;15.65;7.95;;;9.40;99.90;;;;;;5057194;28;20040;-77
2023/04/24 08:57:35;;;;;;;14.50;7.07;;;9.40;99.90;;;;;;5074770;28;20135;-77
2023/04/24 09:00:02;;;;;;;19.27;8.32;;;9.40;99.90;;;;;;5073981;28;20126;-77
2023/04/24 09:02:29;;;;;;;20.83;8.65;;;9.40;99.90;;;;;;5074121;28;20036;-77
2023/04/24 09:04:56;;;;;;;16.10;8.27;;;9.30;99.90;;;;;;5074146;28;20078;-77
2023/04/24 09:07:25;;;;;;;16.58;8.05;;;9.30;99.90;;;;;;5057454;28;20097;-77
2023/04/24 09:09:52;;;;;;;17.10;8.50;;;9.30;99.90;;;;;;5057806;28;20062;-77
2023/04/24 09:12:18;;;;;;;20.83;9.15;;;9.30;99.90;;;;;;5073546;28;20063;-76
2023/04/24 09:14:45;;;;;;;17.13;7.95;;;9.30;99.90;;;;;;5074137;28;20119;-76
2023/04/24 09:17:11;;;;;;;17.27;7.35;;;9.40;99.90;;;;;;5073420;28;20036;-78
2023/04/24 09:19:37;;;;;;;;;;;9.40;99.90;;;;;;5074438;28;20036;-77
2023/04/24 09:22:07;;;;;;;13.82;6.32;;;9.40;99.90;;;;;;5073371;28;20050;-76
2023/04/24 09:24:35;;;;;;;12.50;6.95;;;9.40;99.90;;;;;;5073597;28;20565;-76
2023/04/24 09:27:01;;;;;;;14.35;5.90;;;9.50;99.90;;;;;;5073600;28;20048;-76
2023/04/24 09:29:27;;;;;;;9.13;4.68;;;9.50;99.90;;;;;;5073851;28;20048;-76
2023/04/24 09:31:53;;;;;;;;;;;9.50;99.90;;;;;;5074039;28;20105;-76
2023/04/24 09:34:24;;;;;;;10.85;5.10;;;9.50;99.90;;;;;;5056595;28;19947;-76
2023/04/24 09:36:50;;;;;;;13.50;5.45;;;9.50;99.90;;;;;;5074018;28;20071;-77
2023/04/24 09:39:16;;;;;;;21.33;5.65;;;9.60;99.90;;;;;;5056990;28;20078;-77
2023/04/24 09:42:03;;;;;;;12.80;5.32;;;9.60;99.90;;;;;;5073568;28;20040;-77
2023/04/24 09:44:29;;;;;;;14.87;6.37;;;9.60;99.90;;;;;;5073366;28;20670;-77
2023/04/24 09:46:58;;;;;;;11.95;5.72;;;9.60;99.90;;;;;;5056872;28;20043;-77
2023/04/24 09:49:29;;;;;;;12.52;4.60;;;9.60;99.90;;;;;;5073420;28;20093;-77
2023/04/24 09:52:07;;;;;;;9.27;4.10;;;9.50;99.90;;;;;;5073305;28;20047;-77
2023/04/24 09:54:38;;;;;;;9.23;4.07;;;9.40;99.90;;;;;;5073467;28;20078;-77
2023/04/24 09:57:07;;;;;;;13.43;4.50;;;9.50;99.90;;;;;;5056351;28;20477;-77
2023/04/24 09:59:32;;;;;;;14.73;4.80;;;9.50;99.90;;;;;;5073187;28;20065;-77
2023/04/24 10:01:59;;;;;;;9.23;4.15;;;9.60;99.90;;;;;;5056971;28;20527;-77
2023/04/24 10:04:29;;;;;;;15.18;3.97;;;9.70;99.90;;;;;;5072765;28;20046;-77
2023/04/24 10:06:56;;;;;;;11.02;4.53;;;9.80;99.90;;;;;;5073217;28;20397;-77
2023/04/24 10:09:24;;;;;;;7.60;3.83;;;9.90;99.90;;;;;;5073044;28;21133;-77
2023/04/24 10:11:53;;;;;;;9.55;3.33;;;10.00;99.90;;;;;;5072808;28;20088;-77
2023/04/24 10:14:22;;;;;;;6.00;2.83;;;10.10;99.90;;;;;;5072996;28;20482;-77
2023/04/24 10:16:50;;;;;;;8.90;2.67;;;10.10;99.90;;;;;;5056447;28;20048;-77
2023/04/24 10:19:18;;;;;;;6.25;2.65;;;10.20;99.90;;;;;;5055871;28;20043;-77
2023/04/24 10:21:47;;;;;;;6.40;2.15;;;10.20;99.90;;;;;;5073431;28;20380;-77
2023/04/24 10:24:15;;;;;;;4.78;2.00;;;10.40;99.90;;;;;;5072509;28;20063;-78
2023/04/24 10:26:41;;;;;;;8.45;2.40;;;10.40;99.90;;;;;;5072685;28;20070;-77
2023/04/24 10:29:09;;;;;;;5.28;2.65;;;10.50;99.90;;;;;;5072771;28;20560;-77
2023/04/24 10:31:37;;;;;;;6.32;2.53;;;10.60;99.90;;;;;;5072840;28;20493;-77
2023/04/24 10:34:05;;;;;;;4.05;1.98;;;10.60;99.90;;;;;;5073106;28;20489;-77
2023/04/24 10:36:33;;;;;;;6.38;2.13;;;10.60;99.90;;;;;;5071944;28;20028;-77
2023/04/24 10:39:01;;;;;;;9.32;2.00;;;10.50;99.90;;;;;;5072857;28;20097;-77
2023/04/24 10:41:29;;;;;;;8.07;2.10;;;10.50;99.90;;;;;;5072471;28;20044;-77
2023/04/24 10:44:06;;;;;;;7.88;2.03;;;10.50;99.90;;;;;;5072803;28;20470;-77
2023/04/24 10:46:32;;;;;;;7.55;2.42;;;10.60;99.90;;;;;;5072765;28;20032;-77
2023/04/24 10:48:58;;;;;;;4.38;2.00;;;10.60;99.90;;;;;;5072953;28;20051;-77
2023/04/24 10:51:42;;;;;;;5.65;1.90;;;10.60;99.90;;;;;;5072421;28;20071;-77
2023/04/24 10:54:42;;;;;;;5.70;1.85;;;10.60;99.90;;;;;;5072300;28;20040;-77
2023/04/24 10:57:22;;;;;;;6.28;2.03;;;10.70;99.90;;;;;;5072600;28;20036;-77
2023/04/24 11:00:08;;;;;;;6.25;1.92;;;10.70;99.90;;;;;;5072869;28;20481;-77
2023/04/24 11:02:38;;;;;;;9.52;1.90;;;10.70;99.90;;;;;;5026054;28;20485;-77
2023/04/24 11:05:05;;;;;;;9.07;1.88;;;10.60;99.90;;;;;;5056063;28;20036;-77
2023/04/24 11:08:10;;;;;;;9.00;2.05;;;10.60;99.90;;;;;;5055676;28;20090;-77
2023/04/24 11:10:45;;;;;;;6.82;1.58;;;10.50;99.90;;;;;;5072175;28;20044;-77
2023/04/24 11:13:13;;;;;;;5.10;1.48;;;10.50;99.90;;;;;;5072178;28;20079;-77
2023/04/24 11:15:42;;;;;;;4.95;1.40;;;10.40;99.90;;;;;;5056091;28;20478;-77
2023/04/24 11:18:13;;;;;;;8.82;2.45;;;10.40;99.90;;;;;;5072586;28;20044;-76
2023/04/24 11:20:43;;;;;;;7.45;1.60;;;10.40;99.90;;;;;;5072340;28;20105;-76
2023/04/24 11:23:09;;;;;;;6.35;1.20;;;10.40;99.90;;;;;;5055873;28;20040;-76
2023/04/24 11:25:35;;;;;;;4.53;1.23;;;10.40;99.90;;;;;;5039575;28;20106;-76
2023/04/24 11:28:05;;;;;;;7.55;1.30;;;10.50;99.90;;;;;;5072460;28;20040;-76
2023/04/24 11:30:33;;;;;;;4.10;1.10;;;10.50;99.90;;;;;;5055108;28;20044;-76
2023/04/24 11:33:05;;;;;;;5.85;1.30;;;10.60;99.90;;;;;;5072603;28;20511;-76
2023/04/24 11:35:39;;;;;;;4.55;1.60;;;10.50;99.90;;;;;;5055166;28;20036;-76
2023/04/24 11:38:06;;;;;;;6.40;1.30;;;10.40;99.90;;;;;;5072297;28;20122;-75
2023/04/24 11:40:32;;;;;;;3.60;1.10;;;10.40;99.90;;;;;;5071666;28;20039;-76
2023/04/24 11:43:00;;;;;;;5.20;1.20;;;10.40;99.90;;;;;;5072558;28;20102;-76
2023/04/24 11:45:30;;;;;;;4.75;1.40;;;10.40;99.90;;;;;;5071884;28;20489;-76
2023/04/24 11:47:56;;;;;;;2.50;1.10;;;10.50;99.90;;;;;;5075078;28;20075;-76
2023/04/24 11:50:25;;;;;;;3.75;1.20;;;10.50;99.90;;;;;;5058974;28;20475;-76
2023/04/24 11:52:51;;;;;;;3.65;1.00;;;10.50;99.90;;;;;;5058322;28;20052;-76
2023/04/24 11:55:17;;;;;;;7.40;1.67;;;10.50;99.90;;;;;;5075229;28;20599;-77
2023/04/24 11:57:49;;;;;;;10.90;1.77;;;10.50;99.90;;;;;;5075558;28;20040;-77
2023/04/24 12:00:16;;;;;;;6.18;1.30;;;10.50;99.90;;;;;;5074974;28;20044;-77
2023/04/24 12:02:42;;;;;;;8.38;1.25;;;10.40;99.90;;;;;;5059156;28;20040;-77
2023/04/24 12:05:08;;;;;;;5.75;1.33;;;10.40;99.90;;;;;;5058917;28;20051;-77
2023/04/24 12:07:44;;;;;;;5.90;1.67;;;10.20;99.90;;;;;;5074863;28;20121;-77
2023/04/24 12:10:10;;;;;;;5.55;1.00;;;10.10;99.90;;;;;;5075137;28;20054;-77
2023/04/24 12:12:36;;;;;;;6.60;1.30;;;10.00;99.90;;;;;;5058016;28;20505;-76
2023/04/24 12:15:06;;;;;;;7.40;1.70;;;9.90;99.90;;;;;;5042448;28;20047;-77
2023/04/24 12:17:33;;;;;;;6.95;1.40;;;9.90;99.90;;;;;;5042375;28;20073;-77
2023/04/24 12:20:04;;;;;;;4.53;1.27;;;9.80;99.90;;;;;;5075446;28;20043;-77
2023/04/24 12:22:48;;;;;;;2.40;1.00;;;9.90;99.90;;;;;;5074930;28;20048;-76
2023/04/24 12:25:17;;;;;;;3.17;1.50;;;9.90;99.90;;;;;;5074953;28;20118;-77
2023/04/24 12:27:44;;;;;;;2.67;0.77;;;10.00;99.90;;;;;;5075124;28;20054;-77
2023/04/24 12:30:18;;;;;;;5.15;1.10;;;10.20;99.90;;;;;;5075046;28;20566;-77
2023/04/24 12:32:49;;;;;;;3.97;0.90;;;10.20;99.90;;;;;;5075218;28;20036;-77
2023/04/24 12:35:22;;;;;;;3.10;0.85;;;10.40;99.90;;;;;;5074943;28;20040;-77
2023/04/24 12:37:48;;;;;;;2.78;0.80;;;10.50;99.90;;;;;;5075011;28;20038;-77
2023/04/24 12:40:14;;;;;;;2.47;0.90;;;10.60;99.90;;;;;;5074725;28;20078;-77
2023/04/24 12:42:58;;;;;;;4.05;1.40;;;10.60;99.90;;;;;;5074235;28;20040;-77
2023/04/24 12:45:25;;;;;;;2.85;0.68;;;10.50;99.90;;;;;;5058058;28;20131;-77
2023/04/24 12:47:50;;;;;;;2.95;1.08;;;10.40;99.90;;;;;;5074901;28;20139;-77
2023/04/24 12:50:16;;;;;;;3.80;0.80;;;10.40;99.90;;;;;;5057791;28;20127;-77